^^
Station Historical Data
Daily Summary for January 6, 2018 Units:  Metric    English   Both
« Previous Day
Next Day »
Daily Weekly Monthly Yearly Custom
  High: Low: Average:
Temperature: -17.8 °C 22 °C 27.5 °C
Dew Point: -17.8 °C -8.1 °C 3.1 °C
Humidity: Humidity% 5% 23%
Wind Speed: 0km/h 0km/h 14.3km/h
Wind Gust: 0km/h - -
Wind- - SSW
Pressure: 0 hPa 1001.9 hPa -
Precipitation: 0 mm    
Historical Graphs
 
 
Tabular Data for January 6, 2018
Time Temperature Dew Point Pressure Wind Wind Speed Wind Gust Humidity Rainfall Rate (Hourly) solar Conditions
-17.8 °C -17.8 °C 0 hPa Calm     Humidity% 0 mm SolarRadiationWatts/m^2 W/m2 Conditions
00:03 26.4 °C 8.4 °C 1005.3 hPa SSW 11.1 km/h 19.3 km/h 32% 0 mm 0.0 W/m2
00:08 26.4 °C 8.4 °C 1005.3 hPa SSW 6.4 km/h 16.1 km/h 32% 0 mm 0.0 W/m2
00:24 26 °C 8.5 °C 1005.6 hPa SSW 13 km/h 16.1 km/h 33% 0 mm 0.0 W/m2
00:39 25.8 °C 6.4 °C 1005.6 hPa SSW 16.3 km/h 20.9 km/h 29% 0 mm 0.0 W/m2
00:49 25.8 °C 5.4 °C 1005.6 hPa SSW 16.3 km/h 19.3 km/h 27% 0 mm 0.0 W/m2
00:54 25.7 °C 4.8 °C 1005.6 hPa SSW 13 km/h 14.5 km/h 26% 0 mm 0.0 W/m2
01:09 25.5 °C 4 °C 1005.6 hPa South 11.1 km/h 17.7 km/h 25% 0 mm 0.0 W/m2
01:19 25.3 °C 3.9 °C 1005.6 hPa South 13 km/h 19.3 km/h 25% 0 mm 0.0 W/m2
01:24 25.2 °C 3.8 °C 1005.6 hPa South 19.5 km/h 19.5 km/h 25% 0 mm 0.0 W/m2
01:29 25.1 °C 4.2 °C 1005.6 hPa South 14.3 km/h 16.1 km/h 26% 0 mm 0.0 W/m2
01:34 25 °C 4.2 °C 1005.6 hPa South 7.9 km/h 12.9 km/h 26% 0 mm 0.0 W/m2
01:39 24.8 °C 4.5 °C 1005.6 hPa South 9.7 km/h 12.9 km/h 27% 0 mm 0.0 W/m2
02:10 24.3 °C 5.1 °C 1005.6 hPa South 6.4 km/h 11.3 km/h 29% 0 mm 0.0 W/m2
02:15 24.2 °C 5.5 °C 1005.6 hPa South 6.4 km/h 9.7 km/h 30% 0 mm 0.0 W/m2
02:20 24.1 °C 5.9 °C 1005.6 hPa South 11.1 km/h 11.3 km/h 31% 0 mm 0.0 W/m2
02:30 24.2 °C 6 °C 1005.3 hPa South 9.7 km/h 14.5 km/h 31% 0 mm 0.0 W/m2
02:35 24.2 °C 6 °C 1005.3 hPa South 11.1 km/h 12.9 km/h 31% 0 mm 0.0 W/m2
02:40 24.1 °C 5.4 °C 1005.3 hPa South 11.1 km/h 14.5 km/h 30% 0 mm 0.0 W/m2
02:45 24.1 °C 5.4 °C 1005.3 hPa South 11.1 km/h 16.1 km/h 30% 0 mm 0.0 W/m2
02:50 24.1 °C 5.4 °C 1005.3 hPa South 11.1 km/h 14.5 km/h 30% 0 mm 0.0 W/m2
02:55 24 °C 5.4 °C 1005 hPa SSW 11.1 km/h 16.1 km/h 30% 0 mm 0.0 W/m2
03:00 23.8 °C 5.2 °C 1005 hPa SSW 11.1 km/h 16.1 km/h 30% 0 mm 0.0 W/m2
03:10 23.7 °C 4.6 °C 1005 hPa SSW 13 km/h 14.5 km/h 29% 0 mm 0.0 W/m2
03:15 23.6 °C 4.5 °C 1005 hPa SSW 6.4 km/h 11.3 km/h 29% 0 mm 0.0 W/m2
03:30 23.2 °C 3.7 °C 1004.6 hPa SSW 6.4 km/h 11.3 km/h 28% 0 mm 0.0 W/m2
03:40 22.9 °C 3.4 °C 1004.6 hPa SSW 6.4 km/h 8 km/h 28% 0 mm 0.0 W/m2
03:50 22.6 °C 3.2 °C 1004.3 hPa SSW 6.4 km/h 8 km/h 28% 0 mm 0.0 W/m2
04:15 22.3 °C 3.4 °C 1004.3 hPa SSW 7.9 km/h 9.7 km/h 29% 0 mm 0.0 W/m2
04:20 22.2 °C 3.3 °C 1003.9 hPa SSW 7.9 km/h 9.7 km/h 29% 0 mm 0.0 W/m2
04:31 22 °C 3.6 °C 1003.9 hPa SSW 4.7 km/h 8 km/h 30% 0 mm 0.0 W/m2
04:36 22.1 °C 3.7 °C 1003.9 hPa SSW 6.4 km/h 8 km/h 30% 0 mm 0.0 W/m2
04:46 22.2 °C 3.8 °C 1003.9 hPa SSW 7.9 km/h 8 km/h 30% 0 mm 0.0 W/m2
04:51 22.2 °C 3.3 °C 1003.9 hPa SSW 6.4 km/h 11.3 km/h 29% 0 mm 0.0 W/m2
04:56 22.3 °C 3.4 °C 1003.9 hPa SSW 9.7 km/h 14.5 km/h 29% 0 mm 0.0 W/m2
05:01 22.4 °C 3.5 °C 1003.9 hPa SSW 11.1 km/h 12.9 km/h 29% 0 mm 0.0 W/m2
05:11 22.3 °C 3.4 °C 1003.9 hPa SSW 7.9 km/h 12.9 km/h 29% 0 mm 0.0 W/m2
05:16 22.3 °C 3.4 °C 1003.9 hPa SSW 9.7 km/h 11.3 km/h 29% 0 mm 0.0 W/m2
05:42 22.2 °C 3.8 °C 1004.3 hPa SSW 7.9 km/h 9.7 km/h 30% 0 mm 0.0 W/m2
05:47 22.2 °C 3.8 °C 1004.3 hPa SSW 7.9 km/h 11.3 km/h 30% 0 mm 0.0 W/m2
05:58 22.1 °C 3.7 °C 1004.6 hPa SSW 13 km/h 17.7 km/h 30% 0 mm 0.0 W/m2
06:03 22.2 °C 4.3 °C 1004.6 hPa SSW 11.1 km/h 17.7 km/h 31% 0 mm 5.0 W/m2
06:17 22.1 °C 4.2 °C 1004.6 hPa SSW 16.3 km/h 17.7 km/h 31% 0 mm 23.0 W/m2
06:27 22.2 °C 4.3 °C 1004.6 hPa SSW 11.1 km/h 16.1 km/h 31% 0 mm 49.0 W/m2
06:33 22.2 °C 4.3 °C 1004.6 hPa SSW 14.3 km/h 17.7 km/h 31% 0 mm 74.0 W/m2
06:47 22.7 °C 4.7 °C 1004.6 hPa SSW 9.7 km/h 9.7 km/h 31% 0 mm 97.0 W/m2
07:02 23.2 °C 4.7 °C 1005 hPa SSW 14.3 km/h 14.5 km/h 30% 0 mm 79.0 W/m2
07:12 23.2 °C 5.1 °C 1005 hPa SSW 7.9 km/h 11.3 km/h 31% 0 mm 88.0 W/m2
08:03 23.7 °C 5.1 °C 1005.6 hPa SSW 11.1 km/h 12.9 km/h 30% 0 mm 188.0 W/m2
08:17 24.2 °C 5.5 °C 1005.6 hPa SSW 13 km/h 14.5 km/h 30% 0 mm 343.0 W/m2
08:27 24.9 °C 5.1 °C 1005.6 hPa SSW 11.1 km/h 14.5 km/h 28% 0 mm 411.0 W/m2
09:33 28 °C 3.6 °C 1005.6 hPa SSW 9.7 km/h 14.5 km/h 21% 0 mm 657.0 W/m2
09:59 29.2 °C 2.4 °C 1005.6 hPa SSW 6.4 km/h 8 km/h 18% 0 mm 810.0 W/m2
10:09 29.6 °C 2 °C 1005.6 hPa Calm   9.7 km/h 17% 0 mm 446.0 W/m2
10:53 31.4 °C 0.7 °C 1005.3 hPa SSW 4.7 km/h 12.9 km/h 14% 0 mm 965.0 W/m2
11:04 32.1 °C 1.2 °C 1005.3 hPa SSW 16.3 km/h 16.3 km/h 14% 0 mm 1044.0 W/m2
11:21 32.4 °C 0.5 °C 1005.3 hPa SSW 16.3 km/h 17.7 km/h 13% 0 mm 302.0 W/m2
11:35 32.2 °C 1.3 °C 1005.3 hPa SW 16.3 km/h 16.3 km/h 14% 0 mm 580.0 W/m2
11:47 32.7 °C 1.7 °C 1005.3 hPa SW 13 km/h 16.1 km/h 14% 0 mm 411.0 W/m2
12:16 33.8 °C 0.4 °C 1005 hPa SW 9.7 km/h 19.3 km/h 12% 0 mm 1132.0 W/m2
12:54 35.1 °C -2.5 °C 1004.6 hPa SSW 13 km/h 20.9 km/h 9% 0 mm 1044.0 W/m2
13:05 35.3 °C -2.4 °C 1004.6 hPa SSW 17.7 km/h 20.9 km/h 9% 0 mm 1041.0 W/m2
13:16 35.7 °C -2.1 °C 1004.3 hPa SSW 16.3 km/h 20.9 km/h 9% 0 mm 1195.0 W/m2
13:32 35.2 °C -2.4 °C 1004.3 hPa SSW 16.3 km/h 20.9 km/h 9% 0 mm 424.0 W/m2
13:47 36.1 °C -1.8 °C 1004.3 hPa SSW 16.3 km/h 17.7 km/h 9% 0 mm 1014.0 W/m2
14:16 36.8 °C -4.6 °C 1003.9 hPa SSW 4.7 km/h 16.1 km/h 7% 0 mm 956.0 W/m2
14:37 37.2 °C -4.3 °C 1003.6 hPa Calm     7% 0 mm 939.0 W/m2
14:51 37.8 °C -3.9 °C 1003.3 hPa SW 13 km/h 19.3 km/h 7% 0 mm 882.0 W/m2
15:11 37.6 °C -6.1 °C 1002.9 hPa SSW 11.1 km/h 16.1 km/h 6% 0 mm 837.0 W/m2
15:57 38.1 °C -8.1 °C 1002.6 hPa SW 7.9 km/h 14.5 km/h 5% 0 mm 724.0 W/m2
16:20 38.1 °C -8.1 °C 1002.3 hPa SW 11.1 km/h 22.5 km/h 5% 0 mm 652.0 W/m2
16:33 38.1 °C -8.1 °C 1001.9 hPa SW 14.3 km/h 20.9 km/h 5% 0 mm 605.0 W/m2
16:47 38.1 °C -8.1 °C 1001.9 hPa South 14.3 km/h 17.7 km/h 5% 0 mm 561.0 W/m2
17:02 38.1 °C -8.1 °C 1001.9 hPa SSW 24.1 km/h 32.2 km/h 5% 0 mm 504.0 W/m2
17:10 38.1 °C -8.1 °C 1001.9 hPa SSW 16.3 km/h 20.9 km/h 5% 0 mm 487.0 W/m2
17:17 38.1 °C -8.1 °C 1001.9 hPa SSW 14.3 km/h 19.3 km/h 5% 0 mm 473.0 W/m2
17:42 37.8 °C -5.9 °C 1001.9 hPa South 20.9 km/h 27.4 km/h 6% 0 mm 388.0 W/m2
18:09 37.4 °C -4.2 °C 1001.9 hPa South 17.7 km/h 24.1 km/h 7% 0 mm 306.0 W/m2
18:24 37.2 °C -4.3 °C 1001.9 hPa South 20.9 km/h 25.7 km/h 7% 0 mm 251.0 W/m2
19:20 34.2 °C 5.7 °C 1002.6 hPa SSW 25.9 km/h 27.4 km/h 17% 0 mm 21.0 W/m2
19:25 34 °C 5.5 °C 1002.9 hPa SSW 16.3 km/h 27.4 km/h 17% 0 mm 19.0 W/m2
19:37 33.4 °C 4.2 °C 1002.9 hPa SSW 16.3 km/h 29 km/h 16% 0 mm 12.0 W/m2
19:51 32.6 °C 5.2 °C 1003.3 hPa SSW 17.7 km/h 25.7 km/h 18% 0 mm 0.0 W/m2
20:04 32 °C 6.9 °C 1003.6 hPa SSW 22.7 km/h 29 km/h 21% 0 mm 0.0 W/m2
20:18 31.3 °C 7.7 °C 1003.6 hPa SSW 22.7 km/h 27.4 km/h 23% 0 mm 0.0 W/m2
20:26 30.9 °C 8 °C 1003.9 hPa SSW 30.6 km/h 30.6 km/h 24% 0 mm 0.0 W/m2
20:36 30.4 °C 8.7 °C 1003.9 hPa SSW 24.1 km/h 27.4 km/h 26% 0 mm 0.0 W/m2
20:58 29 °C 9.7 °C 1004.3 hPa SSW 25.9 km/h 30.6 km/h 30% 0 mm 0.0 W/m2
21:04 28.7 °C 9.9 °C 1004.3 hPa SSW 20.9 km/h 32.2 km/h 31% 0 mm 0.0 W/m2
21:23 28.2 °C 9 °C 1004.3 hPa SSW 22.7 km/h 29 km/h 30% 0 mm 0.0 W/m2
21:33 27.8 °C 8.6 °C 1004.6 hPa SSW 30.6 km/h 32.2 km/h 30% 0 mm 0.0 W/m2
21:48 27.3 °C 8.2 °C 1004.6 hPa SSW 25.9 km/h 29 km/h 30% 0 mm 0.0 W/m2
21:57 27.1 °C 8.5 °C 1004.6 hPa SSW 20.9 km/h 27.4 km/h 31% 0 mm 0.0 W/m2
22:19 26.3 °C 8.3 °C 1005 hPa SSW 24.1 km/h 32.2 km/h 32% 0 mm 0.0 W/m2
22:39 25.8 °C 7.4 °C 1005 hPa SSW 19.5 km/h 30.6 km/h 31% 0 mm 0.0 W/m2
22:44 25.7 °C 7.3 °C 1005.3 hPa SSW 22.7 km/h 30.6 km/h 31% 0 mm 0.0 W/m2
22:59 25.3 °C 7 °C 1005.3 hPa SSW 25.9 km/h 29 km/h 31% 0 mm 0.0 W/m2
23:04 25.2 °C 6.4 °C 1005.3 hPa SSW 30.6 km/h 30.6 km/h 30% 0 mm 0.0 W/m2
23:14 25.1 °C 7.2 °C 1005.3 hPa SSW 24.1 km/h 32.2 km/h 32% 0 mm 0.0 W/m2
23:19 24.9 °C 8 °C 1005.3 hPa SSW 33.8 km/h 35.4 km/h 34% 0 mm 0.0 W/m2
23:24 24.9 °C 8 °C 1005.6 hPa SSW 19.5 km/h 27.4 km/h 34% 0 mm 0.0 W/m2
23:39 24.6 °C 8.5 °C 1005.6 hPa SSW 24.1 km/h 30.6 km/h 36% 0 mm 0.0 W/m2
23:44 24.6 °C 8.9 °C 1005.6 hPa South 22.7 km/h 32.2 km/h 37% 0 mm 0.0 W/m2
23:49 24.4 °C 8.8 °C 1005.6 hPa SSW 32 km/h 35.4 km/h 37% 0 mm 0.0 W/m2
Canyon Roadhouse, Fishriver Canyon, Namibia
Compliments of Weather Underground - 2.25 mb